createdAt,value
2022-12-09T00:00:45.235Z,7.15
2022-12-09T00:01:44.945Z,7.13
2022-12-09T00:02:45.480Z,7.13
2022-12-09T00:03:45.676Z,7.18
2022-12-09T00:04:45.371Z,7.18
2022-12-09T00:05:44.610Z,7.06
2022-12-09T00:06:45.146Z,7.03
2022-12-09T00:07:45.292Z,7.1
2022-12-09T00:08:45.141Z,7.13
2022-12-09T00:09:44.603Z,7.1
2022-12-09T00:10:44.904Z,7.06
2022-12-09T00:11:45.228Z,7.06
2022-12-09T00:12:45.156Z,7.13
2022-12-09T00:13:44.914Z,7.07
2022-12-09T00:14:44.994Z,7.07
2022-12-09T00:15:45.498Z,7.06
2022-12-09T00:16:45.908Z,7.06
2022-12-09T00:17:44.933Z,7.1
2022-12-09T00:18:45.003Z,7.06
2022-12-09T00:19:45.409Z,7.13
2022-12-09T00:20:45.323Z,7.05
2022-12-09T00:21:44.709Z,7.13
2022-12-09T00:22:45.057Z,7.02
2022-12-09T00:23:45.363Z,7.07
2022-12-09T00:24:45.492Z,7.13
2022-12-09T00:25:45.025Z,7.07
2022-12-09T00:26:45.167Z,7.07
2022-12-09T00:27:45.773Z,7.03
2022-12-09T00:28:45.127Z,7.15
2022-12-09T00:29:45.580Z,7.02
2022-12-09T00:30:45.338Z,7.11
2022-12-09T00:31:45.482Z,7.06
2022-12-09T00:32:45.725Z,7.11
2022-12-09T00:33:45.428Z,7.07
2022-12-09T00:34:45.212Z,7.03
2022-12-09T00:35:45.423Z,7.1
2022-12-09T00:36:45.534Z,7.06
2022-12-09T00:37:45.227Z,7.13
2022-12-09T00:38:45.262Z,7.07
2022-12-09T00:39:45.469Z,7.03
2022-12-09T00:40:45.402Z,7.05
2022-12-09T00:41:45.662Z,7.07
2022-12-09T00:42:45.217Z,7.11
2022-12-09T00:43:45.399Z,7.1
2022-12-09T00:44:45.720Z,7.07
2022-12-09T00:45:45.922Z,7.06
2022-12-09T00:46:46.085Z,7.06
2022-12-09T00:47:45.899Z,7.06
2022-12-09T00:48:45.649Z,7.06
2022-12-09T00:49:45.952Z,7.03
2022-12-09T00:50:45.724Z,7.11
2022-12-09T00:51:45.554Z,7.05
2022-12-09T00:52:45.286Z,7.05
2022-12-09T00:53:45.890Z,7
2022-12-09T00:54:46.259Z,7.07
2022-12-09T00:55:46.053Z,6.96
2022-12-09T00:56:45.615Z,7
2022-12-09T00:57:45.086Z,7
2022-12-09T00:58:45.885Z,7.05
2022-12-09T00:59:45.525Z,6.99
2022-12-09T01:00:46.151Z,6.95
2022-12-09T01:01:45.983Z,6.95
2022-12-09T01:02:46.139Z,6.96
2022-12-09T01:03:45.891Z,6.93
2022-12-09T01:04:46.232Z,7
2022-12-09T01:05:45.872Z,7.02
2022-12-09T01:06:45.637Z,7
2022-12-09T01:07:45.473Z,6.96
2022-12-09T01:08:48.481Z,6.93
2022-12-09T01:09:45.630Z,6.97
2022-12-09T01:10:45.888Z,6.96
2022-12-09T01:11:46.509Z,6.96
2022-12-09T01:12:45.982Z,6.96
2022-12-09T01:13:45.796Z,6.96
2022-12-09T01:14:45.729Z,6.95
2022-12-09T01:15:46.364Z,6.99
2022-12-09T01:16:46.770Z,6.99
2022-12-09T01:17:46.627Z,6.96
2022-12-09T01:18:46.074Z,6.95
2022-12-09T01:19:46.125Z,6.97
2022-12-09T01:20:45.815Z,6.95
2022-12-09T01:21:45.753Z,6.97
2022-12-09T01:22:46.005Z,6.96
2022-12-09T01:23:46.453Z,6.97
2022-12-09T01:24:46.083Z,6.88
2022-12-09T01:25:46.009Z,6.89
2022-12-09T01:26:46.093Z,6.97
2022-12-09T01:27:46.308Z,6.99
2022-12-09T01:28:46.048Z,6.93
2022-12-09T01:29:46.244Z,6.97
2022-12-09T01:30:46.035Z,6.89
2022-12-09T01:31:46.845Z,7.02
2022-12-09T01:32:47.042Z,6.85
2022-12-09T01:33:46.521Z,6.92
2022-12-09T01:34:45.629Z,6.93
2022-12-09T01:35:46.153Z,6.92
2022-12-09T01:36:46.571Z,7
2022-12-09T01:37:46.371Z,6.88
2022-12-09T01:38:45.968Z,6.87
2022-12-09T01:39:46.020Z,6.87
2022-12-09T01:40:45.930Z,7
2022-12-09T01:41:46.912Z,6.97
2022-12-09T01:42:45.943Z,6.87
2022-12-09T01:43:46.153Z,6.97
2022-12-09T01:44:46.681Z,6.96
2022-12-09T01:45:46.627Z,6.87
2022-12-09T01:46:46.352Z,6.89
2022-12-09T01:47:47.274Z,7.02
2022-12-09T01:48:46.657Z,6.89
2022-12-09T01:49:47.017Z,6.95
2022-12-09T01:50:46.426Z,6.93
2022-12-09T01:51:46.965Z,6.88
2022-12-09T01:52:46.126Z,6.95
2022-12-09T01:53:46.604Z,6.92
2022-12-09T01:54:46.927Z,6.85
2022-12-09T01:55:46.480Z,6.89
2022-12-09T01:56:46.391Z,6.92
2022-12-09T01:57:46.619Z,6.93
2022-12-09T01:58:46.255Z,6.88
2022-12-09T01:59:46.682Z,6.82
2022-12-09T02:00:46.975Z,6.92
2022-12-09T02:01:46.623Z,6.88
2022-12-09T02:02:47.032Z,6.82
2022-12-09T02:03:47.619Z,6.88
2022-12-09T02:04:47.252Z,6.85
2022-12-09T02:05:46.510Z,6.84
2022-12-09T02:06:46.444Z,6.88
2022-12-09T02:07:47.041Z,6.87
2022-12-09T02:08:47.275Z,6.89
2022-12-09T02:09:46.950Z,6.87
2022-12-09T02:10:46.932Z,6.77
2022-12-09T02:11:47.443Z,6.84
2022-12-09T02:12:46.629Z,6.79
2022-12-09T02:13:47.255Z,6.81
2022-12-09T02:14:47.193Z,6.87
2022-12-09T02:15:47.136Z,6.79
2022-12-09T02:16:47.618Z,6.81
2022-12-09T02:17:47.298Z,6.82
2022-12-09T02:18:47.110Z,6.84
2022-12-09T02:19:47.046Z,6.82
2022-12-09T02:20:47.459Z,6.79
2022-12-09T02:21:46.854Z,6.79
2022-12-09T02:22:47.561Z,6.81
2022-12-09T02:23:46.617Z,6.81
2022-12-09T02:24:47.068Z,6.82
2022-12-09T02:25:47.059Z,6.84
2022-12-09T02:26:47.349Z,6.78
2022-12-09T02:27:47.255Z,6.79
2022-12-09T02:28:46.742Z,6.82
2022-12-09T02:29:47.212Z,6.82
2022-12-09T02:30:47.237Z,6.89
2022-12-09T02:31:47.220Z,6.84
2022-12-09T02:32:47.639Z,6.79
2022-12-09T02:33:46.984Z,6.77
2022-12-09T02:34:47.400Z,6.84
2022-12-09T02:35:47.550Z,6.82
2022-12-09T02:36:47.330Z,6.78
2022-12-09T02:37:47.245Z,6.77
2022-12-09T02:38:46.975Z,6.87
2022-12-09T02:39:47.204Z,6.85
2022-12-09T02:40:46.622Z,6.67
2022-12-09T02:41:47.484Z,6.74
2022-12-09T02:42:47.318Z,6.67
2022-12-09T02:43:54.370Z,6.69
2022-12-09T02:44:47.068Z,6.74
2022-12-09T02:45:47.548Z,6.77
2022-12-09T02:46:47.592Z,6.72
2022-12-09T02:47:47.469Z,6.72
2022-12-09T02:48:48.032Z,6.72
2022-12-09T02:49:47.445Z,6.75
2022-12-09T02:50:47.443Z,6.74
2022-12-09T02:51:47.865Z,6.67
2022-12-09T02:52:47.307Z,6.7
2022-12-09T02:53:47.254Z,6.69
2022-12-09T02:54:47.648Z,6.7
2022-12-09T02:55:48.025Z,6.67
2022-12-09T02:56:47.338Z,6.64
2022-12-09T02:57:47.610Z,6.74
2022-12-09T02:58:47.753Z,6.69
2022-12-09T02:59:47.588Z,6.66
2022-12-09T03:00:47.290Z,6.7
2022-12-09T03:01:48.283Z,6.67
2022-12-09T03:02:48.175Z,6.69
2022-12-09T03:03:48.273Z,6.66
2022-12-09T03:04:47.978Z,6.66
2022-12-09T03:05:47.413Z,6.7
2022-12-09T03:06:47.835Z,6.75
2022-12-09T03:07:48.046Z,6.66
2022-12-09T03:08:48.413Z,6.75
2022-12-09T03:09:47.982Z,6.66
2022-12-09T03:10:48.130Z,6.69
2022-12-09T03:11:47.646Z,6.66
2022-12-09T03:12:47.460Z,6.63
2022-12-09T03:13:47.564Z,6.66
2022-12-09T03:14:47.801Z,6.69
2022-12-09T03:15:47.996Z,6.69
2022-12-09T03:16:47.887Z,6.64
2022-12-09T03:17:47.925Z,6.64
2022-12-09T03:18:47.795Z,6.69
2022-12-09T03:19:47.250Z,6.66
2022-12-09T03:20:47.933Z,6.7
2022-12-09T03:21:47.576Z,6.69
2022-12-09T03:22:47.580Z,6.64
2022-12-09T03:23:48.019Z,6.72
2022-12-09T03:24:47.485Z,6.69
2022-12-09T03:25:47.977Z,6.67
2022-12-09T03:26:48.209Z,6.72
2022-12-09T03:27:48.046Z,6.66
2022-12-09T03:28:47.723Z,6.69
2022-12-09T03:29:47.761Z,6.7
2022-12-09T03:30:47.896Z,6.64
2022-12-09T03:31:47.855Z,6.69
2022-12-09T03:32:48.496Z,6.7
2022-12-09T03:33:48.784Z,6.64
2022-12-09T03:34:48.015Z,6.64
2022-12-09T03:35:48.517Z,6.59
2022-12-09T03:36:47.940Z,6.62
2022-12-09T03:37:48.392Z,6.64
2022-12-09T03:38:47.897Z,6.63
2022-12-09T03:39:48.253Z,6.66
2022-12-09T03:40:48.340Z,6.66
2022-12-09T03:41:48.292Z,6.64
2022-12-09T03:42:47.946Z,6.62
2022-12-09T03:43:48.286Z,6.63
2022-12-09T03:44:48.327Z,6.64
2022-12-09T03:45:48.260Z,6.62
2022-12-09T03:46:48.636Z,6.66
2022-12-09T03:47:48.609Z,6.6
2022-12-09T03:48:48.720Z,6.59
2022-12-09T03:49:48.673Z,6.52
2022-12-09T03:50:48.073Z,6.63
2022-12-09T03:51:48.076Z,6.66
2022-12-09T03:52:48.384Z,6.62
2022-12-09T03:53:48.146Z,6.56
2022-12-09T03:54:48.557Z,6.59
2022-12-09T03:55:48.315Z,6.63
2022-12-09T03:56:48.749Z,6.66
2022-12-09T03:57:48.319Z,6.63
2022-12-09T03:58:48.301Z,6.6
2022-12-09T03:59:48.432Z,6.62
2022-12-09T04:00:49.138Z,6.6
2022-12-09T04:01:48.875Z,6.63
2022-12-09T04:02:48.957Z,6.59
2022-12-09T04:03:49.475Z,6.64
2022-12-09T04:04:48.642Z,6.59
2022-12-09T04:05:48.301Z,6.46
2022-12-09T04:06:48.800Z,6.62
2022-12-09T04:07:48.919Z,6.56
2022-12-09T04:08:49.331Z,6.44
2022-12-09T04:09:49.031Z,6.44
2022-12-09T04:10:48.481Z,6.54
2022-12-09T04:11:48.671Z,6.46
2022-12-09T04:12:49.490Z,6.56
2022-12-09T04:13:48.447Z,6.51
2022-12-09T04:14:48.454Z,6.48
2022-12-09T04:15:48.392Z,6.51
2022-12-09T04:16:49.072Z,6.46
2022-12-09T04:17:49.197Z,6.52
2022-12-09T04:18:49.282Z,6.59
2022-12-09T04:19:49.297Z,6.52
2022-12-09T04:20:49.020Z,6.51
2022-12-09T04:21:48.859Z,6.52
2022-12-09T04:22:49.118Z,6.51
2022-12-09T04:23:48.714Z,6.52
2022-12-09T04:24:49.210Z,6.48
2022-12-09T04:25:48.772Z,6.51
2022-12-09T04:26:48.187Z,6.56
2022-12-09T04:27:48.616Z,6.54
2022-12-09T04:28:49.580Z,6.46
2022-12-09T04:29:49.320Z,6.56
2022-12-09T04:30:49.275Z,6.51
2022-12-09T04:31:48.989Z,6.42
2022-12-09T04:32:49.359Z,6.6
2022-12-09T04:33:48.976Z,6.56
2022-12-09T04:34:49.429Z,6.56
2022-12-09T04:35:48.683Z,6.49
2022-12-09T04:36:48.727Z,6.41
2022-12-09T04:37:48.692Z,6.52
2022-12-09T04:38:49.394Z,6.42
2022-12-09T04:39:48.677Z,6.46
2022-12-09T04:40:49.116Z,6.41
2022-12-09T04:41:48.991Z,6.49
2022-12-09T04:42:49.409Z,6.41
2022-12-09T04:43:48.862Z,6.41
2022-12-09T04:44:49.012Z,6.45
2022-12-09T04:45:49.309Z,6.51
2022-12-09T04:46:49.215Z,6.48
2022-12-09T04:47:49.497Z,6.48
2022-12-09T04:48:49.399Z,6.49
2022-12-09T04:49:49.112Z,6.45
2022-12-09T04:50:49.136Z,6.42
2022-12-09T04:51:49.098Z,6.44
2022-12-09T04:52:48.420Z,6.54
2022-12-09T04:53:49.456Z,6.54
2022-12-09T04:54:49.327Z,6.44
2022-12-09T04:55:49.001Z,6.48
2022-12-09T04:56:49.519Z,6.51
2022-12-09T04:57:49.335Z,6.51
2022-12-09T04:58:49.222Z,6.46
2022-12-09T04:59:48.757Z,6.52
2022-12-09T05:00:49.609Z,6.56
2022-12-09T05:01:49.658Z,6.39
2022-12-09T05:02:49.708Z,6.49
2022-12-09T05:03:49.497Z,6.54
2022-12-09T05:04:50.501Z,6.6
2022-12-09T05:05:49.485Z,6.51
2022-12-09T05:06:49.615Z,6.51
2022-12-09T05:07:50.692Z,6.49
2022-12-09T05:08:49.863Z,6.46
2022-12-09T05:09:50.153Z,6.51
2022-12-09T05:10:50.024Z,6.46
2022-12-09T05:11:49.644Z,6.45
2022-12-09T05:12:49.716Z,6.45
2022-12-09T05:13:50.317Z,6.49
2022-12-09T05:14:49.623Z,6.48
2022-12-09T05:15:49.405Z,6.52
2022-12-09T05:16:50.240Z,6.51
2022-12-09T05:17:50.591Z,6.51
2022-12-09T05:18:50.333Z,6.51
2022-12-09T05:19:49.709Z,6.51
2022-12-09T05:20:49.364Z,6.48
2022-12-09T05:21:49.801Z,6.42
2022-12-09T05:22:49.874Z,6.49
2022-12-09T05:23:50.297Z,6.57
2022-12-09T05:24:50.342Z,6.46
2022-12-09T05:25:49.643Z,6.46
2022-12-09T05:26:50.134Z,6.45
2022-12-09T05:27:49.377Z,6.41
2022-12-09T05:28:50.420Z,6.44
2022-12-09T05:29:50.439Z,6.39
2022-12-09T05:30:51.074Z,6.42
2022-12-09T05:31:49.980Z,6.42
2022-12-09T05:32:50.139Z,6.39
2022-12-09T05:33:50.640Z,6.46
2022-12-09T05:34:49.734Z,6.42
2022-12-09T05:35:57.891Z,6.46
2022-12-09T05:36:49.770Z,6.36
2022-12-09T05:37:49.689Z,6.39
2022-12-09T05:38:50.225Z,6.44
2022-12-09T05:39:50.314Z,6.39
2022-12-09T05:40:50.658Z,6.41
2022-12-09T05:41:50.636Z,6.44
2022-12-09T05:42:50.711Z,6.42
2022-12-09T05:43:50.037Z,6.42
2022-12-09T05:44:50.445Z,6.33
2022-12-09T05:45:50.319Z,6.42
2022-12-09T05:46:50.583Z,6.41
2022-12-09T05:47:50.633Z,6.42
2022-12-09T05:48:51.022Z,6.42
2022-12-09T05:49:50.930Z,6.42
2022-12-09T05:50:50.563Z,6.42
2022-12-09T05:51:50.353Z,6.41
2022-12-09T05:52:50.033Z,6.35
2022-12-09T05:53:50.460Z,6.33
2022-12-09T05:54:50.553Z,6.36
2022-12-09T05:55:50.680Z,6.38
2022-12-09T05:56:54.051Z,6.39
2022-12-09T05:57:50.423Z,6.33
2022-12-09T05:58:49.786Z,6.38
2022-12-09T05:59:50.269Z,6.39
2022-12-09T06:00:50.445Z,6.39
2022-12-09T06:01:50.554Z,6.35
2022-12-09T06:02:51.063Z,6.35
2022-12-09T06:03:51.152Z,6.38
2022-12-09T06:04:51.178Z,6.33
2022-12-09T06:05:51.319Z,6.31
2022-12-09T06:06:50.828Z,6.33
2022-12-09T06:07:51.306Z,6.33
2022-12-09T06:08:50.819Z,6.36
2022-12-09T06:09:50.381Z,6.3
2022-12-09T06:10:50.845Z,6.33
2022-12-09T06:11:50.413Z,6.27
2022-12-09T06:12:50.251Z,6.28
2022-12-09T06:13:50.635Z,6.28
2022-12-09T06:14:50.461Z,6.33
2022-12-09T06:15:50.639Z,6.3
2022-12-09T06:16:51.080Z,6.26
2022-12-09T06:17:51.092Z,6.22
2022-12-09T06:18:51.430Z,6.22
2022-12-09T06:19:50.711Z,6.24
2022-12-09T06:20:50.758Z,6.28
2022-12-09T06:21:51.160Z,6.33
2022-12-09T06:22:50.810Z,6.26
2022-12-09T06:23:50.779Z,6.26
2022-12-09T06:24:57.199Z,6.26
2022-12-09T06:25:51.330Z,6.2
2022-12-09T06:26:51.103Z,6.22
2022-12-09T06:27:50.858Z,6.31
2022-12-09T06:28:50.882Z,6.27
2022-12-09T06:29:50.691Z,6.3
2022-12-09T06:30:51.226Z,6.3
2022-12-09T06:31:50.857Z,6.28
2022-12-09T06:32:51.960Z,6.3
2022-12-09T06:34:02.275Z,6.28
2022-12-09T06:34:50.852Z,6.24
2022-12-09T06:35:51.568Z,6.26
2022-12-09T06:36:51.448Z,6.27
2022-12-09T06:37:51.122Z,6.3
2022-12-09T06:38:50.905Z,6.3
2022-12-09T06:39:51.466Z,6.26
2022-12-09T06:40:50.851Z,6.17
2022-12-09T06:41:50.447Z,6.16
2022-12-09T06:42:51.159Z,6.3
2022-12-09T06:43:51.452Z,6.24
2022-12-09T06:44:51.650Z,6.28
2022-12-09T06:45:51.309Z,6.3
2022-12-09T06:46:50.518Z,6.26
2022-12-09T06:47:51.435Z,6.2
2022-12-09T06:48:51.974Z,6.17
2022-12-09T06:49:51.945Z,6.12
2022-12-09T06:50:51.483Z,6.16
2022-12-09T06:51:51.294Z,6.16
2022-12-09T06:52:51.965Z,6.24
2022-12-09T06:53:51.387Z,6.09
2022-12-09T06:54:51.245Z,6.2
2022-12-09T06:55:51.329Z,6.11
2022-12-09T06:56:50.943Z,6.26
2022-12-09T06:57:51.154Z,6.14
2022-12-09T06:58:51.982Z,6.11
2022-12-09T06:59:51.279Z,6.14
2022-12-09T07:00:51.025Z,6.14
2022-12-09T07:01:51.711Z,6.09
2022-12-09T07:02:51.791Z,6.12
2022-12-09T07:03:51.678Z,6.08
2022-12-09T07:04:51.863Z,6.11
2022-12-09T07:05:51.827Z,6.07
2022-12-09T07:06:51.880Z,6.09
2022-12-09T07:07:52.174Z,6.11
2022-12-09T07:08:51.969Z,6.16
2022-12-09T07:09:52.035Z,6.16
2022-12-09T07:10:59.481Z,6.07
2022-12-09T07:11:51.490Z,6.08
2022-12-09T07:12:51.442Z,6.14
2022-12-09T07:13:51.500Z,6.01
2022-12-09T07:14:51.630Z,6.02
2022-12-09T07:15:50.929Z,6.12
2022-12-09T07:16:51.555Z,6.08
2022-12-09T07:17:51.996Z,6.07
2022-12-09T07:18:51.316Z,6.09
2022-12-09T07:19:51.948Z,6.09
2022-12-09T07:20:51.838Z,6.12
2022-12-09T07:21:51.550Z,6.12
2022-12-09T07:22:51.439Z,6.04
2022-12-09T07:23:51.876Z,6.17
2022-12-09T07:24:51.639Z,6.16
2022-12-09T07:25:51.550Z,6.11
2022-12-09T07:26:52.069Z,6.12
2022-12-09T07:27:51.687Z,6.19
2022-12-09T07:28:51.954Z,6.12
2022-12-09T07:29:51.752Z,6.19
2022-12-09T07:30:51.354Z,6.05
2022-12-09T07:31:52.167Z,6.16
2022-12-09T07:32:52.318Z,6.17
2022-12-09T07:33:52.553Z,6.12
2022-12-09T07:34:52.006Z,6.17
2022-12-09T07:35:52.082Z,6.11
2022-12-09T07:36:52.056Z,6.05
2022-12-09T07:37:51.636Z,6.12
2022-12-09T07:38:51.590Z,6.16
2022-12-09T07:39:51.997Z,6.17
2022-12-09T07:40:51.653Z,6.09
2022-12-09T07:41:51.528Z,6.14
2022-12-09T07:42:57.690Z,6.09
2022-12-09T07:43:52.307Z,6.05
2022-12-09T07:44:51.623Z,6.12
2022-12-09T07:45:52.090Z,6.14
2022-12-09T07:46:52.824Z,6.17
2022-12-09T07:47:51.667Z,6.14
2022-12-09T07:48:52.842Z,6.09
2022-12-09T07:49:52.763Z,6.14
2022-12-09T07:50:51.404Z,6.09
2022-12-09T07:51:52.134Z,6.12
2022-12-09T07:52:51.538Z,6.11
2022-12-09T07:53:52.546Z,6.08
2022-12-09T07:54:51.677Z,6.08
2022-12-09T07:55:51.640Z,6.14
2022-12-09T07:56:52.505Z,6.12
2022-12-09T07:57:51.665Z,6.05
2022-12-09T07:58:51.982Z,6.08
2022-12-09T07:59:51.751Z,6.09
2022-12-09T08:00:51.966Z,6.05
2022-12-09T08:01:52.266Z,6.16
2022-12-09T08:02:52.346Z,6.04
2022-12-09T08:03:53.354Z,6.07
2022-12-09T08:04:51.927Z,6.07
2022-12-09T08:05:52.710Z,6.08
2022-12-09T08:06:52.791Z,6.02
2022-12-09T08:07:53.541Z,6.04
2022-12-09T08:08:52.910Z,6.02
2022-12-09T08:09:52.607Z,6.04
2022-12-09T08:10:53.198Z,6.02
2022-12-09T08:11:52.410Z,6.07
2022-12-09T08:12:52.543Z,6.08
2022-12-09T08:13:52.430Z,6.04
2022-12-09T08:14:51.938Z,6.02
2022-12-09T08:15:52.285Z,5.99
2022-12-09T08:16:52.724Z,6.08
2022-12-09T08:17:52.976Z,6.08
2022-12-09T08:18:52.563Z,5.98
2022-12-09T08:19:52.452Z,6.05
2022-12-09T08:20:52.781Z,6.04
2022-12-09T08:21:59.287Z,5.98
2022-12-09T08:22:52.566Z,6.01
2022-12-09T08:23:52.350Z,6.07
2022-12-09T08:24:52.498Z,6.09
2022-12-09T08:25:52.930Z,5.98
2022-12-09T08:26:52.785Z,6.05
2022-12-09T08:27:52.227Z,5.98
2022-12-09T08:28:53.187Z,6.07
2022-12-09T08:29:52.871Z,6.04
2022-12-09T08:30:53.148Z,6.04
2022-12-09T08:31:52.397Z,5.94
2022-12-09T08:32:53.124Z,6.07
2022-12-09T08:33:52.219Z,6.04
2022-12-09T08:34:52.550Z,5.99
2022-12-09T08:35:52.948Z,6.05
2022-12-09T08:36:55.829Z,6.02
2022-12-09T08:37:52.209Z,5.98
2022-12-09T08:38:52.481Z,6.04
2022-12-09T08:39:52.093Z,6.08
2022-12-09T08:40:52.940Z,6.07
2022-12-09T08:41:52.391Z,5.98
2022-12-09T08:42:53.157Z,6.07
2022-12-09T08:43:52.486Z,6.02
2022-12-09T08:44:55.928Z,5.97
2022-12-09T08:45:53.358Z,5.93
2022-12-09T08:46:53.829Z,6.02
2022-12-09T08:47:53.339Z,5.97
2022-12-09T08:48:53.722Z,5.98
2022-12-09T08:49:53.993Z,5.98
2022-12-09T08:50:52.390Z,5.94
2022-12-09T08:51:52.823Z,5.99
2022-12-09T08:52:53.402Z,6.02
2022-12-09T08:53:52.433Z,5.99
2022-12-09T08:54:52.951Z,5.98
2022-12-09T08:55:52.822Z,5.99
2022-12-09T08:56:53.581Z,6.01
2022-12-09T08:57:53.171Z,5.98
2022-12-09T08:58:52.636Z,5.99
2022-12-09T08:59:53.180Z,6.02
2022-12-09T09:00:53.388Z,6.04
2022-12-09T09:01:53.424Z,6.01
2022-12-09T09:02:53.874Z,5.98
2022-12-09T09:03:53.156Z,5.99
2022-12-09T09:04:53.808Z,5.91
2022-12-09T09:05:54.101Z,5.97
2022-12-09T09:06:54.145Z,5.93
2022-12-09T09:07:53.289Z,5.97
2022-12-09T09:08:53.157Z,5.97
2022-12-09T09:09:53.021Z,5.98
2022-12-09T09:10:53.579Z,5.93
2022-12-09T09:11:54.016Z,5.98
2022-12-09T09:12:53.459Z,6.01
2022-12-09T09:13:52.568Z,5.97
2022-12-09T09:14:52.855Z,5.99
2022-12-09T09:15:53.401Z,5.94
2022-12-09T09:16:54.416Z,5.93
2022-12-09T09:17:57.555Z,5.91
2022-12-09T09:18:54.371Z,5.97
2022-12-09T09:19:54.247Z,6.01
2022-12-09T09:20:53.794Z,5.99
2022-12-09T09:21:53.940Z,6.02
2022-12-09T09:22:56.789Z,6.04
2022-12-09T09:23:53.413Z,5.97
2022-12-09T09:24:53.679Z,5.99
2022-12-09T09:25:53.551Z,5.97
2022-12-09T09:26:53.898Z,5.87
2022-12-09T09:27:53.559Z,6.02
2022-12-09T09:28:53.120Z,6.04
2022-12-09T09:29:53.618Z,5.98
2022-12-09T09:30:53.503Z,6.02
2022-12-09T09:31:54.138Z,5.98
2022-12-09T09:32:53.796Z,6.02
2022-12-09T09:33:54.880Z,5.97
2022-12-09T09:34:53.857Z,5.89
2022-12-09T09:35:53.101Z,5.86
2022-12-09T09:36:54.123Z,5.86
2022-12-09T09:37:53.121Z,5.97
2022-12-09T09:38:53.200Z,6.04
2022-12-09T09:39:54.075Z,6.01
2022-12-09T09:40:54.020Z,5.99
2022-12-09T09:41:53.585Z,5.97
2022-12-09T09:42:53.579Z,5.99
2022-12-09T09:43:53.823Z,5.94
2022-12-09T09:44:54.253Z,5.97
2022-12-09T09:45:54.419Z,5.97
2022-12-09T09:46:54.509Z,5.87
2022-12-09T09:47:54.372Z,5.9
2022-12-09T09:48:54.707Z,6.02
2022-12-09T09:49:54.429Z,5.9
2022-12-09T09:50:53.742Z,5.98
2022-12-09T09:51:54.214Z,5.84
2022-12-09T09:52:53.884Z,6.01
2022-12-09T09:53:54.078Z,5.86
2022-12-09T09:54:54.116Z,5.87
2022-12-09T09:55:54.803Z,5.87
2022-12-09T09:56:53.695Z,5.98
2022-12-09T09:57:53.683Z,5.93
2022-12-09T09:58:54.901Z,5.89
2022-12-09T09:59:54.243Z,5.86
2022-12-09T10:00:54.107Z,5.9
2022-12-09T10:01:54.180Z,5.94
2022-12-09T10:02:55.011Z,5.91
2022-12-09T10:03:55.221Z,5.9
2022-12-09T10:04:54.642Z,5.93
2022-12-09T10:05:54.922Z,6.01
2022-12-09T10:06:55.209Z,5.89
2022-12-09T10:07:54.616Z,5.84
2022-12-09T10:08:54.115Z,5.94
2022-12-09T10:09:54.763Z,5.89
2022-12-09T10:10:54.895Z,5.89
2022-12-09T10:11:54.806Z,5.89
2022-12-09T10:13:01.162Z,5.91
2022-12-09T10:13:55.019Z,5.89
2022-12-09T10:14:54.421Z,5.94
2022-12-09T10:15:54.868Z,5.9
2022-12-09T10:16:55.153Z,5.93
2022-12-09T10:17:55.233Z,5.89
2022-12-09T10:18:54.355Z,5.86
2022-12-09T10:19:54.447Z,5.9
2022-12-09T10:20:54.819Z,5.86
2022-12-09T10:21:54.432Z,5.93
2022-12-09T10:22:54.051Z,5.93
2022-12-09T10:23:54.660Z,5.94
2022-12-09T10:24:54.411Z,5.89
2022-12-09T10:25:54.792Z,5.9
2022-12-09T10:26:53.845Z,5.89
2022-12-09T10:27:54.607Z,5.93
2022-12-09T10:28:54.167Z,5.91
2022-12-09T10:29:55.002Z,5.89
2022-12-09T10:30:54.497Z,5.91
2022-12-09T10:31:54.598Z,5.97
2022-12-09T10:32:55.426Z,5.9
2022-12-09T10:33:55.512Z,5.93
2022-12-09T10:34:55.143Z,5.89
2022-12-09T10:35:54.360Z,5.89
2022-12-09T10:36:54.536Z,5.93
2022-12-09T10:37:54.374Z,5.87
2022-12-09T10:38:55.408Z,5.94
2022-12-09T10:39:54.259Z,5.94
2022-12-09T10:40:54.430Z,5.86
2022-12-09T10:41:54.622Z,5.94
2022-12-09T10:42:54.239Z,5.87
2022-12-09T10:43:54.266Z,5.89
2022-12-09T10:44:54.578Z,5.91
2022-12-09T10:46:25.545Z,5.89
2022-12-09T10:46:55.184Z,5.91
2022-12-09T10:47:54.684Z,5.89
2022-12-09T10:48:55.916Z,5.87
2022-12-09T10:49:55.333Z,5.86
2022-12-09T10:50:54.837Z,5.89
2022-12-09T10:51:55.514Z,5.89
2022-12-09T10:52:54.691Z,5.9
2022-12-09T10:53:54.972Z,5.94
2022-12-09T10:54:55.247Z,5.83
2022-12-09T10:55:54.777Z,5.84
2022-12-09T10:56:55.734Z,5.89
2022-12-09T10:57:54.947Z,5.89
2022-12-09T10:58:54.788Z,5.9
2022-12-09T10:59:54.715Z,5.84
2022-12-09T11:00:54.254Z,5.86
2022-12-09T11:01:55.642Z,5.83
2022-12-09T11:02:55.474Z,5.83
2022-12-09T11:03:55.118Z,5.89
2022-12-09T11:04:55.826Z,5.82
2022-12-09T11:05:54.851Z,5.89
2022-12-09T11:07:03.344Z,5.83
2022-12-09T11:07:56.208Z,5.87
2022-12-09T11:08:55.498Z,5.86
2022-12-09T11:09:56.346Z,5.82
2022-12-09T11:10:55.367Z,5.89
2022-12-09T11:11:55.056Z,5.91
2022-12-09T11:12:55.380Z,5.84
2022-12-09T11:13:54.713Z,5.86
2022-12-09T11:14:54.851Z,5.9
2022-12-09T11:15:55.353Z,5.89
2022-12-09T11:16:54.790Z,5.9
2022-12-09T11:18:01.425Z,5.82
2022-12-09T11:18:55.577Z,5.82
2022-12-09T11:19:55.165Z,5.86
2022-12-09T11:20:56.141Z,5.83
2022-12-09T11:21:55.634Z,5.91
2022-12-09T11:22:54.897Z,5.76
2022-12-09T11:24:04.429Z,5.75
2022-12-09T11:24:56.649Z,5.84
2022-12-09T11:25:55.022Z,5.75
2022-12-09T11:26:54.939Z,5.76
2022-12-09T11:27:56.148Z,5.79
2022-12-09T11:28:55.238Z,5.82
2022-12-09T11:29:55.200Z,5.97
2022-12-09T11:31:35.719Z,5.91
2022-12-09T11:31:55.671Z,5.76
2022-12-09T11:32:55.737Z,5.86
2022-12-09T11:33:56.056Z,5.86
2022-12-09T11:34:55.936Z,5.75
2022-12-09T11:35:55.703Z,5.82
2022-12-09T11:36:54.666Z,5.93
2022-12-09T11:37:54.679Z,5.9
2022-12-09T11:38:54.441Z,5.8
2022-12-09T11:39:54.802Z,5.83
2022-12-09T11:40:54.767Z,5.89
2022-12-09T11:41:54.753Z,5.87
2022-12-09T11:42:54.747Z,5.72
2022-12-09T11:43:54.681Z,5.82
2022-12-09T11:44:54.516Z,5.8
2022-12-09T11:45:54.783Z,5.82
2022-12-09T11:46:54.912Z,5.82
2022-12-09T11:48:41.806Z,5.91
2022-12-09T11:48:54.570Z,5.8
2022-12-09T11:49:55.381Z,5.9
2022-12-09T11:50:54.596Z,5.82
2022-12-09T11:51:54.622Z,5.89
2022-12-09T11:52:54.888Z,5.86
2022-12-09T11:53:57.645Z,5.9
2022-12-09T11:54:54.922Z,5.83
2022-12-09T11:55:54.439Z,5.86
2022-12-09T11:56:54.991Z,5.89
2022-12-09T11:57:54.999Z,5.83
2022-12-09T11:58:55.022Z,5.84
2022-12-09T11:59:54.988Z,5.8
2022-12-09T12:00:54.747Z,5.91
2022-12-09T12:01:54.975Z,5.8
2022-12-09T12:02:55.186Z,5.87
2022-12-09T12:03:55.035Z,5.83
2022-12-09T12:04:54.805Z,5.8
2022-12-09T12:05:54.555Z,5.8
2022-12-09T12:06:54.570Z,5.83
2022-12-09T12:07:55.313Z,5.76
2022-12-09T12:08:55.628Z,5.79
2022-12-09T12:09:55.132Z,5.79
2022-12-09T12:10:54.880Z,5.93
2022-12-09T12:11:55.384Z,5.79
2022-12-09T12:12:55.196Z,5.8
2022-12-09T12:13:54.948Z,5.75
2022-12-09T12:14:55.198Z,5.8
2022-12-09T12:15:55.213Z,5.83
2022-12-09T12:16:55.029Z,5.83
2022-12-09T12:17:55.155Z,5.91
2022-12-09T12:18:54.994Z,5.86
2022-12-09T12:19:55.001Z,5.75
2022-12-09T12:20:55.034Z,5.84
2022-12-09T12:21:55.043Z,5.76
2022-12-09T12:22:59.714Z,5.83
2022-12-09T12:23:55.070Z,5.75
2022-12-09T12:24:55.099Z,5.82
2022-12-09T12:25:55.355Z,5.86
2022-12-09T12:26:55.106Z,5.82
2022-12-09T12:27:55.411Z,5.83
2022-12-09T12:29:09.330Z,5.8
2022-12-09T12:29:55.433Z,5.75
2022-12-09T12:30:55.419Z,5.82
2022-12-09T12:31:55.615Z,5.82
2022-12-09T12:34:08.132Z,5.86
2022-12-09T12:34:41.587Z,5.84
2022-12-09T12:35:33.675Z,5.93
2022-12-09T12:36:33.663Z,5.91
2022-12-09T12:37:33.155Z,5.75
2022-12-09T12:38:33.172Z,5.87
2022-12-09T12:39:33.716Z,5.8
2022-12-09T12:40:33.737Z,5.83
2022-12-09T12:41:33.740Z,5.91
2022-12-09T12:42:33.485Z,5.87
2022-12-09T12:43:33.831Z,5.8
2022-12-09T12:44:33.939Z,5.73
2022-12-09T12:45:34.077Z,5.89
2022-12-09T12:46:34.021Z,5.8
2022-12-09T12:47:33.581Z,5.79
2022-12-09T12:48:34.040Z,5.87
2022-12-09T12:49:33.593Z,5.87
2022-12-09T12:50:34.026Z,5.84
2022-12-09T12:51:33.614Z,5.91
2022-12-09T12:53:03.620Z,5.84
2022-12-09T12:53:33.910Z,5.9
2022-12-09T12:54:33.928Z,5.9
2022-12-09T12:55:33.946Z,5.8
2022-12-09T12:56:33.704Z,5.87
2022-12-09T12:57:33.969Z,5.8
2022-12-09T12:58:33.453Z,5.82
2022-12-09T12:59:33.749Z,5.72
2022-12-09T13:00:34.035Z,5.84
2022-12-09T13:01:34.324Z,5.76
2022-12-09T13:02:34.199Z,5.87
2022-12-09T13:03:33.787Z,5.86
2022-12-09T13:04:34.079Z,5.89
2022-12-09T13:05:34.078Z,5.79
2022-12-09T13:06:33.834Z,5.83
2022-12-09T13:07:33.852Z,5.8
2022-12-09T13:08:34.130Z,5.89
2022-12-09T13:09:33.862Z,5.84
2022-12-09T13:10:34.152Z,5.89
2022-12-09T13:11:33.904Z,5.8
2022-12-09T13:12:34.175Z,5.76
2022-12-09T13:13:33.947Z,5.71
2022-12-09T13:14:34.209Z,5.8
2022-12-09T13:15:34.361Z,5.9
2022-12-09T13:16:34.322Z,5.87
2022-12-09T13:17:34.282Z,5.86
2022-12-09T13:18:34.263Z,5.82
2022-12-09T13:19:34.276Z,5.83
2022-12-09T13:20:34.292Z,5.83
2022-12-09T13:21:34.306Z,5.83
2022-12-09T13:22:34.335Z,5.79